createdAt,value
2022-11-15T00:02:45.813Z,26.67
2022-11-15T00:05:36.970Z,25.23
2022-11-15T00:08:24.315Z,28.70
2022-11-15T00:11:14.684Z,23.70
2022-11-15T00:14:03.537Z,26.98
2022-11-15T00:16:52.013Z,31.23
2022-11-15T00:19:39.709Z,27.67
2022-11-15T00:22:26.554Z,27.65
2022-11-15T00:25:13.557Z,28.58
2022-11-15T00:28:02.866Z,25.60
2022-11-15T00:30:50.089Z,26.25
2022-11-15T00:33:37.484Z,28.75
2022-11-15T00:36:24.602Z,25.67
2022-11-15T00:39:13.124Z,26.55
2022-11-15T00:42:00.517Z,26.42
2022-11-15T00:44:48.924Z,24.55
2022-11-15T00:47:35.877Z,24.30
2022-11-15T00:50:22.954Z,23.73
2022-11-15T00:53:10.229Z,26.67
2022-11-15T00:55:57.481Z,24.65
2022-11-15T00:58:44.499Z,28.15
2022-11-15T01:01:33.459Z,26.10
2022-11-15T01:04:20.514Z,25.45
2022-11-15T01:07:07.971Z,27.95
2022-11-15T01:09:54.985Z,21.40
2022-11-15T01:12:41.995Z,26.67
2022-11-15T01:15:28.956Z,27.88
2022-11-15T01:18:17.438Z,26.50
2022-11-15T01:21:08.267Z,28.02
2022-11-15T01:23:56.291Z,28.52
2022-11-15T01:26:43.837Z,26.17
2022-11-15T01:29:30.926Z,24.10
2022-11-15T01:32:18.037Z,27.55
2022-11-15T01:35:07.445Z,27.08
2022-11-15T01:37:54.719Z,27.48
2022-11-15T01:40:42.682Z,28.58
2022-11-15T01:43:33.976Z,26.95
2022-11-15T01:46:33.847Z,26.40
2022-11-15T01:49:24.882Z,28.80
2022-11-15T01:52:16.030Z,30.92
2022-11-15T01:55:09.330Z,29.38
2022-11-15T01:57:59.097Z,25.55
2022-11-15T02:00:46.616Z,29.42
2022-11-15T02:03:41.067Z,29.35
2022-11-15T02:06:28.056Z,25.60
2022-11-15T02:09:20.735Z,29.10
2022-11-15T02:12:09.707Z,26.45
2022-11-15T02:14:57.971Z,26.67
2022-11-15T02:18:12.241Z,28.98
2022-11-15T02:21:12.975Z,30.60
2022-11-15T02:24:41.764Z,32.40
2022-11-15T02:28:00.181Z,32.60
2022-11-15T02:30:55.073Z,37.05
2022-11-15T02:33:53.499Z,28.17
2022-11-15T02:36:46.488Z,26.42
2022-11-15T02:39:40.859Z,27.50
2022-11-15T02:42:48.514Z,30.08
2022-11-15T02:45:41.907Z,26.13
2022-11-15T02:48:32.501Z,26.23
2022-11-15T02:51:20.936Z,28.40
2022-11-15T02:54:08.044Z,31.35
2022-11-15T02:56:58.447Z,28.02
2022-11-15T03:00:11.517Z,29.98
2022-11-15T03:03:19.455Z,26.80
2022-11-15T03:06:17.473Z,29.48
2022-11-15T03:09:10.241Z,26.65
2022-11-15T03:12:04.988Z,27.25
2022-11-15T03:14:58.440Z,29.02
2022-11-15T03:17:51.458Z,27.50
2022-11-15T03:20:39.463Z,29.98
2022-11-15T03:23:28.905Z,26.15
2022-11-15T03:26:20.507Z,28.58
2022-11-15T03:29:13.966Z,24.63
2022-11-15T03:32:05.077Z,25.05
2022-11-15T03:34:56.203Z,27.85
2022-11-15T03:37:48.276Z,26.98
2022-11-15T03:40:41.731Z,26.58
2022-11-15T03:43:36.459Z,24.73
2022-11-15T03:46:28.336Z,25.77
2022-11-15T03:49:22.209Z,25.70
2022-11-15T03:52:09.928Z,24.90
2022-11-15T03:54:58.892Z,25.02
2022-11-15T03:57:48.334Z,27.17
2022-11-15T04:00:35.663Z,22.52
2022-11-15T04:03:23.089Z,24.52
2022-11-15T04:06:10.023Z,26.67
2022-11-15T04:08:57.270Z,24.58
2022-11-15T04:11:44.720Z,22.92
2022-11-15T04:14:33.509Z,21.48
2022-11-15T04:17:20.714Z,23.55
2022-11-15T04:20:27.072Z,19.52
2022-11-15T04:23:35.303Z,20.35
2022-11-15T04:26:25.325Z,18.23
2022-11-15T04:29:29.872Z,18.95
2022-11-15T04:32:18.836Z,17.83
2022-11-15T04:35:06.842Z,18.98
2022-11-15T04:37:54.080Z,19.67
2022-11-15T04:40:41.457Z,17.13
2022-11-15T04:43:28.813Z,16.80
2022-11-15T04:46:16.490Z,17.88
2022-11-15T04:49:04.639Z,17.73
2022-11-15T04:51:52.002Z,18.95
2022-11-15T04:54:38.826Z,19.05
2022-11-15T04:57:26.274Z,19.58
2022-11-15T05:00:17.813Z,18.67
2022-11-15T05:03:21.950Z,18.45
2022-11-15T05:06:10.499Z,19.38
2022-11-15T05:08:58.128Z,19.77
2022-11-15T05:11:45.553Z,17.02
2022-11-15T05:14:32.928Z,16.27
2022-11-15T05:17:20.146Z,18.23
2022-11-15T05:20:09.308Z,15.10
2022-11-15T05:22:58.480Z,17.70
2022-11-15T05:25:45.652Z,18.58
2022-11-15T05:28:33.191Z,16.95
2022-11-15T05:31:20.186Z,16.92
2022-11-15T05:34:08.037Z,14.30
2022-11-15T05:36:55.839Z,15.48
2022-11-15T05:39:44.760Z,15.07
2022-11-15T05:42:32.976Z,15.30
2022-11-15T05:45:26.399Z,15.45
2022-11-15T05:48:14.553Z,14.18
2022-11-15T05:51:02.177Z,14.25
2022-11-15T05:53:50.582Z,18.35
2022-11-15T05:56:39.353Z,13.98
2022-11-15T05:59:27.380Z,17.65
2022-11-15T06:02:14.654Z,15.52
2022-11-15T06:05:01.283Z,17.30
2022-11-15T06:07:48.621Z,17.05
2022-11-15T06:10:36.142Z,17.15
2022-11-15T06:13:26.033Z,14.27
2022-11-15T06:16:13.535Z,17.00
2022-11-15T06:19:01.418Z,12.93
2022-11-15T06:21:48.881Z,13.98
2022-11-15T06:24:36.080Z,14.80
2022-11-15T06:27:23.484Z,13.35
2022-11-15T06:30:13.252Z,13.40
2022-11-15T06:33:04.611Z,17.25
2022-11-15T06:35:52.021Z,14.75
2022-11-15T06:38:39.039Z,15.50
2022-11-15T06:41:27.137Z,16.92
2022-11-15T06:44:14.535Z,17.70
2022-11-15T06:47:03.401Z,20.13
2022-11-15T06:49:50.365Z,18.75
2022-11-15T06:52:37.852Z,17.00
2022-11-15T06:55:25.074Z,16.75
2022-11-15T06:58:12.212Z,14.82
2022-11-15T07:01:03.696Z,19.58
2022-11-15T07:03:52.367Z,16.45
2022-11-15T07:06:40.106Z,18.33
2022-11-15T07:09:28.142Z,16.02
2022-11-15T07:12:15.417Z,16.70
2022-11-15T07:15:02.756Z,13.63
2022-11-15T07:17:50.407Z,15.77
2022-11-15T07:20:38.727Z,17.10
2022-11-15T07:23:25.745Z,16.33
2022-11-15T07:26:13.221Z,16.85
2022-11-15T07:29:00.334Z,16.27
2022-11-15T07:31:48.140Z,16.92
2022-11-15T07:34:35.411Z,17.00
2022-11-15T07:37:24.363Z,16.33
2022-11-15T07:40:13.259Z,14.10
2022-11-15T07:43:05.298Z,16.05
2022-11-15T07:45:57.694Z,14.57
2022-11-15T07:48:47.079Z,18.08
2022-11-15T07:51:34.271Z,19.58
2022-11-15T07:54:22.552Z,24.15
2022-11-15T07:57:11.675Z,18.85
2022-11-15T08:00:01.315Z,18.00
2022-11-15T08:02:49.582Z,19.55
2022-11-15T08:05:38.471Z,21.80
2022-11-15T08:08:26.297Z,19.20
2022-11-15T08:11:15.256Z,24.67
2022-11-15T08:14:02.456Z,20.17
2022-11-15T08:16:51.174Z,20.08
2022-11-15T08:19:38.460Z,20.63
2022-11-15T08:22:26.076Z,21.55
2022-11-15T08:25:14.089Z,19.98
2022-11-15T08:28:05.636Z,20.48
2022-11-15T08:30:54.490Z,19.27
2022-11-15T08:33:41.835Z,21.00
2022-11-15T08:36:34.832Z,21.70
2022-11-15T08:39:29.020Z,21.02
2022-11-15T08:42:19.892Z,23.83
2022-11-15T08:45:10.570Z,19.80
2022-11-15T08:47:58.235Z,23.20
2022-11-15T08:50:45.692Z,21.25
2022-11-15T08:53:33.201Z,23.45
2022-11-15T08:56:20.732Z,23.05
2022-11-15T08:59:07.431Z,24.50
2022-11-15T09:01:56.572Z,22.90
2022-11-15T09:04:44.631Z,22.83
2022-11-15T09:07:33.123Z,21.95
2022-11-15T09:10:20.522Z,24.80
2022-11-15T09:13:08.131Z,25.75
2022-11-15T09:15:55.444Z,27.23
2022-11-15T09:18:44.429Z,23.80
2022-11-15T09:21:32.422Z,26.15
2022-11-15T09:24:20.229Z,23.60
2022-11-15T09:27:07.675Z,25.52
2022-11-15T09:29:55.089Z,24.67
2022-11-15T09:32:42.538Z,24.80
2022-11-15T09:35:30.909Z,24.38
2022-11-15T09:38:18.513Z,21.77
2022-11-15T09:41:35.729Z,24.20
2022-11-15T09:44:40.347Z,28.00
2022-11-15T09:47:49.551Z,23.38
2022-11-15T09:50:48.123Z,21.27
2022-11-15T09:53:50.682Z,21.75
2022-11-15T09:56:19.405Z,21.50
2022-11-15T09:59:01.230Z,25.80
2022-11-15T10:01:43.450Z,25.33
2022-11-15T10:04:13.072Z,25.27
2022-11-15T10:06:51.436Z,24.13
2022-11-15T10:09:27.145Z,27.17
2022-11-15T10:11:56.664Z,24.15
2022-11-15T10:14:28.752Z,29.83
2022-11-15T10:17:33.765Z,22.80
2022-11-15T10:20:14.821Z,28.33
2022-11-15T10:22:49.493Z,24.52
2022-11-15T10:25:22.257Z,22.02
2022-11-15T10:27:57.016Z,23.15
2022-11-15T10:30:33.868Z,26.27
2022-11-15T10:33:14.435Z,22.65
2022-11-15T10:35:43.869Z,23.38
2022-11-15T10:38:15.222Z,25.08
2022-11-15T10:40:44.977Z,25.58
2022-11-15T10:43:18.183Z,26.13
2022-11-15T10:45:48.345Z,25.50
2022-11-15T10:48:27.843Z,24.73
2022-11-15T10:50:58.339Z,25.63
2022-11-15T10:53:33.851Z,24.65
2022-11-15T10:56:07.690Z,23.85
2022-11-15T10:58:40.276Z,26.27
2022-11-15T11:01:18.373Z,25.35
2022-11-15T11:03:48.248Z,25.48
2022-11-15T11:06:19.324Z,25.27
2022-11-15T11:08:58.447Z,29.08
2022-11-15T11:11:27.871Z,27.60
2022-11-15T11:13:56.363Z,26.77
2022-11-15T11:16:43.693Z,26.63
2022-11-15T11:19:32.821Z,25.40
2022-11-15T11:22:11.727Z,24.13
2022-11-15T11:24:51.187Z,23.15
2022-11-15T11:27:31.551Z,19.92
2022-11-15T11:30:17.304Z,24.17
2022-11-15T11:33:21.042Z,27.25
2022-11-15T11:36:05.756Z,27.30
2022-11-15T11:38:45.703Z,26.45
2022-11-15T11:41:29.585Z,29.23
2022-11-15T11:44:08.258Z,26.55
2022-11-15T11:46:51.830Z,26.13
2022-11-15T11:49:27.031Z,29.50
2022-11-15T11:52:01.165Z,24.58
2022-11-15T11:54:49.339Z,22.30
2022-11-15T11:57:28.088Z,22.75
2022-11-15T12:00:03.970Z,23.90
2022-11-15T12:02:44.470Z,22.38
2022-11-15T12:07:47.279Z,20.63
2022-11-15T12:10:23.347Z,19.70
2022-11-15T12:13:01.187Z,20.05
2022-11-15T12:15:34.095Z,22.00
2022-11-15T12:18:03.931Z,22.13
2022-11-15T12:20:38.979Z,21.42
2022-11-15T12:23:16.061Z,20.77
2022-11-15T12:25:52.341Z,19.92
2022-11-15T12:28:52.902Z,19.20
2022-11-15T12:31:38.338Z,20.42
2022-11-15T12:34:18.174Z,20.33
2022-11-15T12:36:47.135Z,19.73
2022-11-15T12:39:16.849Z,21.48
2022-11-15T12:41:47.452Z,23.55
2022-11-15T12:44:52.468Z,19.90
2022-11-15T12:47:26.439Z,22.67
2022-11-15T12:49:55.783Z,19.85
2022-11-15T12:52:24.300Z,21.20
2022-11-15T12:55:01.570Z,20.65
2022-11-15T12:57:41.842Z,20.88
2022-11-15T13:00:49.735Z,20.65
2022-11-15T13:03:28.696Z,25.50
2022-11-15T13:06:31.496Z,21.95
2022-11-15T13:09:01.425Z,17.92
2022-11-15T13:11:54.260Z,22.17
2022-11-15T13:14:46.225Z,18.23
2022-11-15T13:17:35.959Z,17.58
2022-11-15T13:20:29.208Z,20.02
2022-11-15T13:23:10.042Z,17.00
2022-11-15T13:26:03.358Z,17.92
2022-11-15T13:28:38.799Z,20.00
2022-11-15T13:31:28.302Z,19.63
2022-11-15T13:34:02.153Z,15.38
2022-11-15T13:36:34.211Z,17.77
2022-11-15T13:39:06.257Z,16.02
2022-11-15T13:44:20.887Z,19.10
2022-11-15T13:46:50.875Z,15.80
2022-11-15T13:49:19.842Z,15.05
2022-11-15T13:51:51.592Z,16.58
2022-11-15T13:56:56.973Z,18.27
2022-11-15T13:59:28.920Z,16.08
2022-11-15T14:02:00.444Z,18.58
2022-11-15T14:04:34.939Z,16.92
2022-11-15T14:07:05.201Z,16.45
2022-11-15T14:09:42.299Z,19.15
2022-11-15T14:12:41.389Z,21.50
2022-11-15T14:15:31.037Z,22.58
2022-11-15T14:18:06.555Z,22.17
2022-11-15T14:20:46.001Z,20.92
2022-11-15T14:23:31.231Z,26.10
2022-11-15T14:26:11.403Z,19.20
2022-11-15T14:28:53.495Z,23.60
2022-11-15T14:31:29.899Z,21.40
2022-11-15T14:33:59.395Z,25.85
2022-11-15T14:36:27.987Z,22.90
2022-11-15T14:38:56.723Z,24.35
2022-11-15T14:41:28.203Z,23.35
2022-11-15T14:43:58.563Z,20.83
2022-11-15T14:46:27.148Z,23.65
2022-11-15T14:48:55.828Z,26.98
2022-11-15T14:51:25.177Z,19.45
2022-11-15T14:53:56.437Z,19.65
2022-11-15T14:56:24.944Z,21.02
2022-11-15T14:58:53.965Z,24.33
2022-11-15T15:01:27.080Z,23.27
2022-11-15T15:03:58.108Z,26.00
2022-11-15T15:06:27.738Z,23.05
2022-11-15T15:08:57.496Z,22.40
2022-11-15T15:11:28.426Z,21.77
2022-11-15T15:13:58.553Z,27.48
2022-11-15T15:16:28.517Z,41.20
2022-11-15T15:18:57.105Z,29.13
2022-11-15T15:21:32.346Z,30.50
2022-11-15T15:24:05.433Z,28.48
2022-11-15T15:26:37.529Z,31.25
2022-11-15T15:29:06.010Z,30.13
2022-11-15T15:31:35.899Z,27.90
2022-11-15T15:34:04.515Z,27.98
2022-11-15T15:36:33.162Z,24.27
2022-11-15T15:39:01.656Z,25.10
2022-11-15T15:41:30.329Z,23.85
2022-11-15T15:43:58.816Z,25.58
2022-11-15T15:46:27.272Z,27.45
2022-11-15T15:48:57.285Z,31.63
2022-11-15T15:51:26.138Z,32.75
2022-11-15T15:53:58.241Z,28.25
2022-11-15T15:56:27.296Z,26.02
2022-11-15T15:58:56.625Z,24.65
2022-11-15T16:01:26.027Z,22.20
2022-11-15T16:03:54.437Z,29.73
2022-11-15T16:06:37.599Z,26.42
2022-11-15T16:09:16.111Z,27.83
2022-11-15T16:11:47.538Z,27.92
2022-11-15T16:14:16.494Z,28.75
2022-11-15T16:16:44.892Z,23.48
2022-11-15T16:19:14.265Z,24.45
2022-11-15T16:21:44.375Z,23.92
2022-11-15T16:24:13.435Z,25.77
2022-11-15T16:26:42.716Z,22.88
2022-11-15T16:29:12.963Z,22.70
2022-11-15T16:31:42.504Z,22.58
2022-11-15T16:34:11.264Z,26.10
2022-11-15T16:36:40.273Z,21.98
2022-11-15T16:39:14.739Z,20.25
2022-11-15T16:41:44.398Z,21.67
2022-11-15T16:44:13.299Z,26.52
2022-11-15T16:46:43.661Z,27.92
2022-11-15T16:49:15.811Z,34.90
2022-11-15T16:51:46.777Z,37.60
2022-11-15T16:54:17.818Z,30.42
2022-11-15T16:56:48.088Z,24.48
2022-11-15T16:59:21.017Z,26.30
2022-11-15T17:01:54.545Z,26.95
2022-11-15T17:04:23.789Z,24.63
2022-11-15T17:06:52.606Z,25.02
2022-11-15T17:09:25.234Z,22.80
2022-11-15T17:11:55.591Z,26.98
2022-11-15T17:14:24.658Z,24.77
2022-11-15T17:16:56.047Z,25.63
2022-11-15T17:19:24.909Z,26.75
2022-11-15T17:21:54.402Z,25.45
2022-11-15T17:24:24.339Z,26.33
2022-11-15T17:26:53.302Z,26.88
2022-11-15T17:29:21.664Z,29.40
2022-11-15T17:31:51.026Z,25.83
2022-11-15T17:34:21.087Z,36.47
2022-11-15T17:36:50.662Z,35.17
2022-11-15T17:39:21.251Z,35.00
2022-11-15T17:41:51.326Z,29.75
2022-11-15T17:44:20.058Z,26.83
2022-11-15T17:46:48.873Z,28.83
2022-11-15T17:49:17.890Z,26.67
2022-11-15T17:51:49.995Z,27.50
2022-11-15T17:54:18.661Z,31.42
2022-11-15T17:56:47.720Z,31.40
2022-11-15T17:59:21.339Z,32.13
2022-11-15T18:01:50.614Z,34.45
2022-11-15T18:04:19.154Z,36.13
2022-11-15T18:06:48.262Z,33.65
2022-11-15T18:09:17.036Z,29.50
2022-11-15T18:11:50.786Z,34.50
2022-11-15T18:14:20.953Z,34.92
2022-11-15T18:16:49.871Z,39.50
2022-11-15T18:19:18.493Z,39.42
2022-11-15T18:22:01.086Z,37.83
2022-11-15T18:24:33.625Z,36.42
2022-11-15T18:27:03.933Z,33.05
2022-11-15T18:29:34.771Z,34.55
2022-11-15T18:32:06.508Z,36.92
2022-11-15T18:34:35.978Z,33.63
2022-11-15T18:37:05.481Z,32.38
2022-11-15T18:39:34.388Z,33.45
2022-11-15T18:42:05.318Z,39.20
2022-11-15T18:44:35.885Z,37.85
2022-11-15T18:47:05.104Z,34.65
2022-11-15T18:49:33.768Z,37.05
2022-11-15T18:52:02.766Z,35.75
2022-11-15T18:54:31.882Z,34.63
2022-11-15T18:57:01.992Z,34.53
2022-11-15T18:59:30.982Z,38.22
2022-11-15T19:02:01.323Z,37.10
2022-11-15T19:04:30.103Z,39.63
2022-11-15T19:06:58.613Z,37.38
2022-11-15T19:09:32.895Z,38.70
2022-11-15T19:12:23.528Z,35.47
2022-11-15T19:17:33.651Z,36.60
2022-11-15T19:20:06.346Z,38.33
2022-11-15T19:22:36.591Z,41.63
2022-11-15T19:25:09.862Z,41.40
2022-11-15T19:27:41.543Z,157.32
2022-11-15T19:30:15.628Z,486.58
2022-11-15T19:32:49.294Z,270.05
2022-11-15T19:35:19.673Z,137.48
2022-11-15T19:37:55.852Z,66.80
2022-11-15T19:40:27.281Z,72.95
2022-11-15T19:42:55.911Z,63.85
2022-11-15T19:45:25.153Z,51.20
2022-11-15T19:47:56.033Z,43.22
2022-11-15T19:50:25.135Z,37.70
2022-11-15T19:52:54.577Z,37.97
2022-11-15T19:55:24.137Z,39.80
2022-11-15T19:57:53.029Z,49.28
2022-11-15T20:00:22.147Z,75.13
2022-11-15T20:02:51.045Z,56.90
2022-11-15T20:05:21.132Z,55.38
2022-11-15T20:07:50.195Z,53.38
2022-11-15T20:10:20.863Z,47.03
2022-11-15T20:12:50.072Z,43.35
2022-11-15T20:15:20.045Z,31.30
2022-11-15T20:17:49.352Z,37.60
2022-11-15T20:20:18.570Z,52.85
2022-11-15T20:22:48.712Z,86.60
2022-11-15T20:25:17.335Z,47.90
2022-11-15T20:27:46.122Z,49.17
2022-11-15T20:30:15.275Z,33.55
2022-11-15T20:32:43.686Z,34.58
2022-11-15T20:35:18.067Z,28.23
2022-11-15T20:37:48.612Z,27.48
2022-11-15T20:40:18.386Z,32.20
2022-11-15T20:42:49.082Z,29.45
2022-11-15T20:45:18.550Z,32.45
2022-11-15T20:47:47.351Z,30.80
2022-11-15T20:50:40.917Z,39.33
2022-11-15T20:53:06.297Z,42.55
2022-11-15T20:55:34.943Z,52.00
2022-11-15T20:58:04.042Z,39.80
2022-11-15T21:00:32.565Z,38.85
2022-11-15T21:03:02.050Z,34.72
2022-11-15T21:05:31.112Z,38.65
2022-11-15T21:07:59.588Z,37.08
2022-11-15T21:10:46.107Z,42.35
2022-11-15T21:13:14.710Z,41.08
2022-11-15T21:15:43.650Z,49.53
2022-11-15T21:18:13.038Z,57.25
2022-11-15T21:20:41.509Z,45.58
2022-11-15T21:23:10.395Z,37.72
2022-11-15T21:25:42.783Z,45.55
2022-11-15T21:28:12.010Z,33.15
2022-11-15T21:30:40.586Z,34.88
2022-11-15T21:33:11.005Z,43.30
2022-11-15T21:35:40.014Z,41.78
2022-11-15T21:38:09.008Z,36.40
2022-11-15T21:40:40.245Z,39.83
2022-11-15T21:43:09.001Z,38.15
2022-11-15T21:45:37.816Z,40.53
2022-11-15T21:48:07.212Z,36.65
2022-11-15T21:50:36.147Z,40.55
2022-11-15T21:53:04.774Z,43.63
2022-11-15T21:55:33.281Z,41.80
2022-11-15T21:58:03.307Z,40.50
2022-11-15T22:00:49.274Z,40.72
2022-11-15T22:03:18.456Z,33.50
2022-11-15T22:05:47.921Z,34.90
2022-11-15T22:08:17.069Z,33.20
2022-11-15T22:10:48.478Z,35.20
2022-11-15T22:13:19.147Z,36.40
2022-11-15T22:15:48.111Z,37.60
2022-11-15T22:18:20.081Z,35.75
2022-11-15T22:20:57.521Z,34.78
2022-11-15T22:23:27.882Z,36.78
2022-11-15T22:25:56.980Z,37.97
2022-11-15T22:28:27.489Z,31.45
2022-11-15T22:30:57.155Z,33.55
2022-11-15T22:33:31.853Z,32.22
2022-11-15T22:36:02.178Z,37.13
2022-11-15T22:38:31.896Z,30.20
2022-11-15T22:41:02.116Z,32.53
2022-11-15T22:43:32.711Z,32.55
2022-11-15T22:46:03.908Z,32.17
2022-11-15T22:48:34.915Z,27.15
2022-11-15T22:51:04.728Z,32.03
2022-11-15T22:53:33.683Z,33.33
2022-11-15T22:56:04.616Z,30.00
2022-11-15T22:58:36.132Z,31.77
2022-11-15T23:01:06.570Z,31.58
2022-11-15T23:03:35.838Z,29.08
2022-11-15T23:06:07.047Z,30.33
2022-11-15T23:08:37.032Z,31.80
2022-11-15T23:11:24.063Z,29.38
2022-11-15T23:13:55.089Z,29.10
2022-11-15T23:16:26.192Z,32.42
2022-11-15T23:18:57.399Z,28.65
2022-11-15T23:21:46.410Z,25.33
2022-11-15T23:24:16.403Z,29.88
2022-11-15T23:26:46.580Z,27.73
2022-11-15T23:29:18.371Z,26.60
2022-11-15T23:32:05.696Z,29.10
2022-11-15T23:34:38.454Z,27.73
2022-11-15T23:37:09.405Z,25.70
2022-11-15T23:39:38.872Z,24.80
2022-11-15T23:42:09.604Z,24.25
2022-11-15T23:44:39.970Z,23.50
2022-11-15T23:47:08.739Z,22.60
2022-11-15T23:49:40.742Z,24.00
2022-11-15T23:52:09.517Z,24.27
2022-11-15T23:54:39.481Z,23.27
2022-11-15T23:57:12.034Z,26.95
2022-11-15T23:59:44.275Z,22.38
